Time;durP1;ratioP1;P1;durP2;ratioP2;P2;SDS_P1;SDS_P2;PMS_P1;PMS_P2;Temp;Humidity;BMP_temperature;BMP_pressure;BME280_temperature;BME280_humidity;BME280_pressure;Samples;Min_cycle;Max_cycle;Signal;HPM_P1;HPM_P2
2023/02/02 00:00:36;;;;;;;;;2.00;2.00;;;;;9.61;100.00;102650.56;5069081;27;67055;-68
2023/02/02 00:03:02;;;;;;;;;4.00;2.50;;;;;9.59;100.00;102654.91;5074537;27;67605;-69
2023/02/02 00:05:27;;;;;;;;;4.75;1.00;;;;;9.57;100.00;102655.63;5060002;28;45914;-69
2023/02/02 00:07:52;;;;;;;;;2.75;2.75;;;;;9.57;100.00;102647.72;5066860;28;58904;-69
2023/02/02 00:10:18;;;;;;;;;3.00;2.00;;;;;9.55;100.00;102658.22;5076689;27;65742;-69
2023/02/02 00:12:43;;;;;;;;;2.25;2.00;;;;;9.50;100.00;102648.31;5070090;28;48155;-69
2023/02/02 00:15:09;;;;;;;;;1.50;1.50;;;;;9.51;100.00;102655.38;5072912;28;45351;-69
2023/02/02 00:17:34;;;;;;;;;2.00;1.00;;;;;9.48;100.00;102645.59;5077765;27;45632;-69
2023/02/02 00:19:59;;;;;;;;;4.00;1.75;;;;;9.50;100.00;102653.56;5076697;28;55182;-69
2023/02/02 00:22:25;;;;;;;;;3.00;1.00;;;;;9.47;100.00;102658.69;5077424;28;45628;-69
2023/02/02 00:24:50;;;;;;;;;2.75;1.00;;;;;9.44;100.00;102660.38;5058551;28;62147;-69
2023/02/02 00:27:15;;;;;;;;;4.75;2.00;;;;;9.43;100.00;102655.03;5076312;28;49479;-69
2023/02/02 00:29:40;;;;;;;;;2.00;1.00;;;;;9.40;100.00;102658.44;5062964;28;53878;-69
2023/02/02 00:32:06;;;;;;;;;3.75;2.00;;;;;9.38;100.00;102653.94;5075165;27;64740;-69
2023/02/02 00:34:31;;;;;;;;;2.00;1.00;;;;;9.35;100.00;102651.16;5077653;28;45324;-69
2023/02/02 00:36:56;;;;;;;;;3.00;1.00;;;;;9.34;100.00;102650.25;5075758;28;61365;-69
2023/02/02 00:39:26;;;;;;;;;2.50;1.00;;;;;9.30;100.00;102650.94;5076845;28;48976;-69
2023/02/02 00:41:52;;;;;;;;;2.50;2.00;;;;;9.28;100.00;102644.72;5077164;28;45829;-69
2023/02/02 00:47:02;;;;;;;;;3.25;2.75;;;;;9.29;100.00;102646.50;5077583;28;45358;-68
2023/02/02 00:49:27;;;;;;;;;1.00;1.00;;;;;9.32;100.00;102643.09;5077667;28;46774;-69
2023/02/02 00:51:53;;;;;;;;;5.00;2.00;;;;;9.28;100.00;102642.06;5076669;27;50246;-69
2023/02/02 00:54:18;;;;;;;;;5.00;1.75;;;;;9.29;100.00;102650.88;5077159;28;45492;-69
2023/02/02 00:56:43;;;;;;;;;7.75;1.50;;;;;9.28;100.00;102649.97;5058348;28;49804;-69
2023/02/02 00:59:08;;;;;;;;;2.50;1.50;;;;;9.25;100.00;102643.66;5076189;28;70529;-69
2023/02/02 01:01:34;;;;;;;;;3.50;2.00;;;;;9.26;100.00;102646.34;5075945;28;69339;-69
2023/02/02 01:04:00;;;;;;;;;4.25;1.00;;;;;9.23;100.00;102632.16;5075941;28;45491;-69
2023/02/02 01:06:25;;;;;;;;;1.25;1.25;;;;;9.21;100.00;102625.88;5069795;27;45204;-69
2023/02/02 01:08:51;;;;;;;;;4.75;1.25;;;;;9.23;100.00;102634.78;5059433;28;46014;-69
2023/02/02 01:11:16;;;;;;;;;4.25;2.25;;;;;9.21;100.00;102631.16;5075764;28;62157;-69
2023/02/02 01:13:42;;;;;;;;;2.50;2.00;;;;;9.22;100.00;102628.63;5065993;28;45364;-69
2023/02/02 01:16:08;;;;;;;;;3.00;2.00;;;;;9.22;100.00;102622.44;5059002;28;47236;-69
2023/02/02 01:18:34;;;;;;;;;4.75;2.00;;;;;9.23;100.00;102625.16;5056603;28;47589;-69
2023/02/02 01:21:05;;;;;;;;;2.50;0.50;;;;;9.19;100.00;102616.19;5076879;28;47089;-69
2023/02/02 01:23:31;;;;;;;;;3.00;1.00;;;;;9.22;100.00;102622.44;5076708;28;45465;-69
2023/02/02 01:25:58;;;;;;;;;1.25;1.00;;;;;9.22;100.00;102612.81;5078946;28;45431;-68
2023/02/02 01:28:23;;;;;;;;;3.50;2.50;;;;;9.19;100.00;102607.38;5072781;28;46544;-68
2023/02/02 01:30:49;;;;;;;;;3.25;2.00;;;;;9.21;100.00;102620.63;5071686;28;45366;-69
2023/02/02 01:33:15;;;;;;;;;1.00;1.00;;;;;9.17;100.00;102623.13;5071815;28;64712;-69
2023/02/02 01:35:52;;;;;;;;;5.25;2.00;;;;;9.19;100.00;102631.09;5077504;28;45386;-69
2023/02/02 01:38:18;;;;;;;;;1.00;1.00;;;;;9.16;100.00;102631.88;5074875;28;46883;-69
2023/02/02 01:40:46;;;;;;;;;1.00;1.00;;;;;9.15;100.00;102629.16;5059066;28;45454;-69
2023/02/02 01:43:41;;;;;;;;;1.50;1.50;;;;;9.14;100.00;102637.91;5055013;28;45533;-68
2023/02/02 01:46:20;;;;;;;;;4.25;2.00;;;;;9.11;100.00;102635.13;5054383;28;45503;-69
2023/02/02 01:48:57;;;;;;;;;5.75;2.00;;;;;9.11;100.00;102643.03;5071091;28;45958;-69
2023/02/02 01:51:29;;;;;;;;;3.00;1.50;;;;;9.06;100.00;102639.28;5058483;28;45497;-68
2023/02/02 01:53:57;;;;;;;;;2.50;1.00;;;;;9.08;100.00;102634.97;5058664;28;45235;-69
2023/02/02 01:56:40;;;;;;;;;1.00;1.00;;;;;9.08;100.00;102638.53;5076526;28;45535;-69
2023/02/02 01:59:06;;;;;;;;;2.00;1.00;;;;;9.06;100.00;102634.03;5071611;28;46501;-69
2023/02/02 02:01:31;;;;;;;;;3.00;2.00;;;;;9.06;100.00;102636.66;5059152;28;62686;-69
2023/02/02 02:03:56;;;;;;;;;2.25;1.25;;;;;9.01;100.00;102643.44;5068532;28;46575;-69
2023/02/02 02:06:24;;;;;;;;;4.25;0.75;;;;;9.00;100.00;102637.28;5069467;28;56223;-69
2023/02/02 02:08:56;;;;;;;;;4.50;3.00;;;;;8.99;100.00;102635.44;5064034;28;47342;-69
2023/02/02 02:11:22;;;;;;;;;7.00;2.00;;;;;8.99;100.00;102645.09;5061549;28;45594;-68
2023/02/02 02:16:41;;;;;;;;;6.25;1.25;;;;;9.00;100.00;102653.09;5054524;28;45395;-69
2023/02/02 02:26:33;;;;;;;;;2.00;1.00;;;;;8.97;100.00;102652.03;5008711;28;45527;-69
2023/02/02 02:29:26;;;;;;;;;2.50;2.50;;;;;8.97;100.00;102652.03;5071882;28;46496;-69
2023/02/02 02:32:13;;;;;;;;;2.00;2.00;;;;;8.96;100.00;102656.41;5072620;28;45659;-69
2023/02/02 02:34:53;;;;;;;;;1.50;1.00;;;;;8.95;100.00;102656.31;5066868;28;46977;-69
2023/02/02 02:37:45;;;;;;;;;3.75;1.75;;;;;8.93;100.00;102653.59;5067599;28;45485;-69
2023/02/02 02:40:15;;;;;;;;;1.25;1.00;;;;;8.93;100.00;102662.41;5064373;28;45435;-69
2023/02/02 02:42:44;;;;;;;;;3.00;1.25;;;;;8.92;100.00;102664.97;5073576;28;45962;-69
2023/02/02 02:45:12;;;;;;;;;1.25;1.25;;;;;8.90;100.00;102664.91;5057189;28;45557;-69
2023/02/02 02:47:38;;;;;;;;;2.00;2.00;;;;;8.87;100.00;102659.50;5052676;28;45541;-69
2023/02/02 02:50:04;;;;;;;;;1.25;1.25;;;;;8.83;100.00;102649.63;5040690;28;45738;-69
2023/02/02 02:52:31;;;;;;;;;5.00;1.00;;;;;8.83;100.00;102649.63;5067682;28;47398;-69
2023/02/02 02:54:58;;;;;;;;;3.00;2.00;;;;;8.80;100.00;102654.78;5075490;27;45458;-69
2023/02/02 02:57:41;;;;;;;;;0.75;0.75;;;;;8.81;100.00;102653.94;5067054;28;49186;-69
2023/02/02 03:00:34;;;;;;;;;3.00;0.25;;;;;8.80;100.00;102656.50;5074036;28;45570;-69
2023/02/02 03:03:14;;;;;;;;;2.00;2.00;;;;;8.76;100.00;102651.91;5075625;27;45530;-69
2023/02/02 03:06:01;;;;;;;;;1.75;1.75;;;;;8.74;100.00;102654.50;5056460;28;45493;-69
2023/02/02 03:08:33;;;;;;;;;3.00;1.00;;;;;8.70;100.00;102656.91;5074663;28;45552;-69
2023/02/02 03:11:01;;;;;;;;;2.25;2.00;;;;;8.71;100.00;102650.78;5057437;28;45426;-69
2023/02/02 03:13:26;;;;;;;;;6.75;2.00;;;;;8.71;100.00;102645.53;5056793;28;46058;-69
2023/02/02 03:15:52;;;;;;;;;1.25;1.25;;;;;8.71;100.00;102645.53;5054431;28;45495;-69
2023/02/02 03:18:19;;;;;;;;;6.75;1.00;;;;;8.71;100.00;102662.22;5055166;28;45366;-69
2023/02/02 03:20:45;;;;;;;;;2.50;1.00;;;;;8.71;100.00;102649.06;5056639;28;45748;-68
2023/02/02 03:23:10;;;;;;;;;2.00;1.00;;;;;8.71;100.00;102651.69;5075843;28;46545;-69
2023/02/02 03:25:36;;;;;;;;;1.00;1.00;;;;;8.69;100.00;102653.38;5077970;28;45544;-69
2023/02/02 03:28:01;;;;;;;;;4.25;1.00;;;;;8.70;100.00;102654.25;5077927;28;45479;-69
2023/02/02 03:30:27;;;;;;;;;4.00;1.25;;;;;8.71;100.00;102666.59;5060616;28;45339;-69
2023/02/02 03:32:52;;;;;;;;;2.75;1.50;;;;;8.67;100.00;102655.00;5076993;28;68497;-69
2023/02/02 03:35:21;;;;;;;;;2.00;1.00;;;;;8.67;100.00;102657.63;5078330;28;45437;-69
2023/02/02 03:37:46;;;;;;;;;2.50;1.75;;;;;8.68;100.00;102655.91;5077671;27;45378;-69
2023/02/02 03:40:12;;;;;;;;;3.00;1.00;;;;;8.68;100.00;102658.53;5077333;28;45423;-69
2023/02/02 03:42:37;;;;;;;;;3.50;1.00;;;;;8.66;100.00;102663.75;5073313;27;47448;-68
2023/02/02 03:45:03;;;;;;;;;4.50;0.00;;;;;8.63;100.00;102659.25;5077198;28;45354;-69
2023/02/02 03:47:28;;;;;;;;;3.25;1.00;;;;;8.62;100.00;102661.78;5075446;28;45438;-69
2023/02/02 03:49:54;;;;;;;;;2.50;1.00;;;;;8.62;100.00;102672.31;5078169;28;45540;-69
2023/02/02 03:52:20;;;;;;;;;5.50;1.75;;;;;8.63;100.00;102674.16;5059414;28;45595;-69
2023/02/02 03:54:45;;;;;;;;;3.00;1.25;;;;;8.61;100.00;102679.31;5072703;28;66667;-69
2023/02/02 03:57:10;;;;;;;;;0.25;0.25;;;;;8.64;100.00;102676.84;5074456;27;60853;-69
2023/02/02 03:59:35;;;;;;;;;2.00;1.00;;;;;8.73;100.00;102686.91;5077618;28;55601;-69
2023/02/02 04:02:01;;;;;;;;;3.75;1.25;;;;;8.76;100.00;102688.78;5071357;27;55047;-69
2023/02/02 04:04:26;;;;;;;;;7.75;1.00;;;;;8.78;100.00;102687.13;5057886;28;45509;-68
2023/02/02 04:06:52;;;;;;;;;1.25;1.25;;;;;8.81;100.00;102685.56;5059670;28;60065;-69
2023/02/02 04:09:17;;;;;;;;;3.25;1.25;;;;;8.83;100.00;102683.88;5058861;28;59228;-69
2023/02/02 04:11:42;;;;;;;;;1.75;1.00;;;;;8.85;100.00;102676.97;5071565;27;47456;-69
2023/02/02 04:14:09;;;;;;;;;1.00;1.00;;;;;8.90;100.00;102679.81;5068204;28;67790;-69
2023/02/02 04:16:36;;;;;;;;;1.00;1.00;;;;;8.93;100.00;102679.94;5068161;28;45342;-69
2023/02/02 04:19:04;;;;;;;;;4.25;0.25;;;;;9.01;100.00;102682.97;5073952;27;45595;-69
2023/02/02 04:21:30;;;;;;;;;1.75;1.50;;;;;9.04;100.00;102672.56;5046543;28;47858;-69
2023/02/02 04:23:56;;;;;;;;;3.25;1.75;;;;;9.08;100.00;102680.69;5073057;28;45411;-69
2023/02/02 04:26:24;;;;;;;;;1.75;1.00;;;;;9.10;100.00;102680.75;5068382;28;45284;-69
2023/02/02 04:28:50;;;;;;;;;3.00;1.00;;;;;9.13;100.00;102680.91;5073411;27;45539;-69
2023/02/02 04:31:15;;;;;;;;;1.00;0.00;;;;;9.18;100.00;102685.56;5045695;28;47586;-68
2023/02/02 04:33:41;;;;;;;;;6.00;1.00;;;;;9.22;100.00;102688.34;5057974;28;64608;-68
2023/02/02 04:36:06;;;;;;;;;5.50;1.00;;;;;9.22;100.00;102675.16;5076215;28;64563;-69
2023/02/02 04:38:31;;;;;;;;;3.25;1.00;;;;;9.26;100.00;102680.63;5056098;28;45600;-69
2023/02/02 04:40:57;;;;;;;;;2.00;0.00;;;;;9.31;100.00;102675.56;5059205;28;47439;-69
2023/02/02 04:43:22;;;;;;;;;2.50;0.75;;;;;9.29;100.00;102680.78;5058003;28;64698;-69
2023/02/02 04:45:53;;;;;;;;;1.75;1.00;;;;;9.27;100.00;102681.50;5057587;28;64860;-68
2023/02/02 04:48:19;;;;;;;;;1.75;1.75;;;;;9.29;100.00;102685.16;5076673;28;45438;-69
2023/02/02 04:50:44;;;;;;;;;5.00;1.00;;;;;9.27;100.00;102684.16;5058865;28;66817;-69
2023/02/02 04:53:09;;;;;;;;;1.75;1.75;;;;;9.27;100.00;102684.16;5076908;28;57442;-69
2023/02/02 04:55:36;;;;;;;;;2.25;1.25;;;;;9.27;100.00;102678.88;5076223;28;62710;-69
2023/02/02 04:58:02;;;;;;;;;6.00;1.00;;;;;9.29;100.00;102680.78;5073345;28;45438;-69
2023/02/02 05:00:27;;;;;;;;;0.00;0.00;;;;;9.32;100.00;102693.16;5071575;28;46141;-69
2023/02/02 05:02:52;;;;;;;;;1.50;1.00;;;;;9.30;100.00;102677.28;5074839;27;65640;-69
2023/02/02 05:05:19;;;;;;;;;1.00;1.00;;;;;9.28;100.00;102683.34;5072995;28;45446;-68
2023/02/02 05:07:44;;;;;;;;;0.25;0.00;;;;;9.27;100.00;102684.16;5076812;27;45540;-69
2023/02/02 05:10:10;;;;;;;;;1.25;1.00;;;;;9.27;100.00;102693.00;5069768;28;48092;-69
2023/02/02 05:12:35;;;;;;;;;1.00;1.00;;;;;9.27;100.00;102698.25;5025762;28;45990;-69
2023/02/02 05:15:02;;;;;;;;;1.00;1.00;;;;;9.28;100.00;102700.06;5067805;28;62903;-69
2023/02/02 05:17:28;;;;;;;;;3.75;1.75;;;;;9.30;100.00;102687.84;5072818;28;45487;-69
2023/02/02 05:19:53;;;;;;;;;2.25;1.00;;;;;9.30;100.00;102695.75;5057814;28;46093;-69
2023/02/02 05:22:18;;;;;;;;;3.75;1.00;;;;;9.25;100.00;102694.63;5074209;28;64843;-69
2023/02/02 05:24:44;;;;;;;;;2.25;1.00;;;;;9.33;100.00;102710.81;5073184;28;45686;-68
2023/02/02 05:27:09;;;;;;;;;1.00;1.00;;;;;9.34;100.00;102713.53;5074451;28;45477;-69
2023/02/02 05:29:34;;;;;;;;;3.00;1.00;;;;;9.33;100.00;102693.28;5069930;28;58228;-69
2023/02/02 05:31:59;;;;;;;;;2.25;1.00;;;;;9.35;100.00;102709.16;5072166;28;65463;-69
2023/02/02 05:34:25;;;;;;;;;0.75;0.25;;;;;9.38;100.00;102717.22;5075179;27;45312;-69
2023/02/02 05:36:51;;;;;;;;;3.75;1.50;;;;;9.39;100.00;102722.53;5069843;27;45545;-69
2023/02/02 05:39:17;;;;;;;;;2.50;2.00;;;;;9.39;100.00;102714.63;5069762;28;46320;-69
2023/02/02 05:41:42;;;;;;;;;4.00;1.00;;;;;9.37;100.00;102712.75;5076376;28;45325;-69
2023/02/02 05:44:10;;;;;;;;;6.25;1.25;;;;;9.36;100.00;102713.59;5074217;28;63621;-69
2023/02/02 05:46:36;;;;;;;;;2.00;1.00;;;;;9.36;100.00;102710.94;5077082;28;45211;-68
2023/02/02 05:49:03;;;;;;;;;2.00;2.00;;;;;9.36;100.00;102713.59;5074774;28;46088;-69
2023/02/02 05:51:32;;;;;;;;;2.00;1.00;;;;;9.36;100.00;102711.84;5070760;28;45556;-69
2023/02/02 05:53:57;;;;;;;;;4.00;1.50;;;;;9.37;100.00;102707.47;5060101;28;45686;-68
2023/02/02 05:56:22;;;;;;;;;1.00;1.00;;;;;9.39;100.00;102719.00;5062829;28;45570;-72
2023/02/02 05:58:48;;;;;;;;;3.00;1.00;;;;;9.43;100.00;102720.97;5073467;28;67449;-69
2023/02/02 06:01:15;;;;;;;;;4.50;1.00;;;;;9.45;100.00;102721.91;5066235;28;46365;-68
2023/02/02 06:03:40;;;;;;;;;6.00;1.00;;;;;9.46;100.00;102726.34;5070098;28;45488;-68
2023/02/02 06:06:06;;;;;;;;;2.50;1.00;;;;;9.46;100.00;102729.00;5056168;28;60705;-69
2023/02/02 06:08:31;;;;;;;;;2.00;2.00;;;;;9.50;100.00;102722.13;5076637;28;46942;-69
2023/02/02 06:10:56;;;;;;;;;2.75;1.00;;;;;9.53;100.00;102723.16;5075625;27;66224;-69
2023/02/02 06:13:22;;;;;;;;;2.00;1.00;;;;;9.52;100.00;102717.81;5074973;27;60519;-69
2023/02/02 06:15:47;;;;;;;;;1.25;1.00;;;;;9.52;100.00;102716.09;5076501;28;58930;-69
2023/02/02 06:18:12;;;;;;;;;2.50;1.00;;;;;9.52;100.00;102723.09;5070110;28;66913;-68
2023/02/02 06:20:38;;;;;;;;;2.75;1.00;;;;;9.51;100.00;102719.56;5057284;28;65976;-69
2023/02/02 06:23:04;;;;;;;;;3.25;0.50;;;;;9.54;100.00;102725.00;5057659;28;45726;-68
2023/02/02 06:25:29;;;;;;;;;1.50;1.50;;;;;9.56;100.00;102722.41;5056767;28;45500;-68
2023/02/02 06:27:56;;;;;;;;;1.25;1.00;;;;;9.57;100.00;102724.22;5057745;28;64638;-70
2023/02/02 06:30:21;;;;;;;;;1.00;1.00;;;;;9.57;100.00;102734.75;5068415;28;45545;-70
2023/02/02 06:32:47;;;;;;;;;1.00;1.00;;;;;9.54;100.00;102730.25;5056855;28;45457;-70
2023/02/02 06:35:12;;;;;;;;;1.00;1.00;;;;;9.53;100.00;102728.44;5072094;28;58155;-71
2023/02/02 06:37:38;;;;;;;;;1.50;1.50;;;;;9.56;100.00;102728.59;5054645;28;47743;-71
2023/02/02 06:40:05;;;;;;;;;1.00;1.00;;;;;9.56;100.00;102740.88;5075865;28;45514;-71
2023/02/02 06:42:30;;;;;;;;;4.50;1.00;;;;;9.54;100.00;102745.19;5074594;28;45479;-70
2023/02/02 06:44:56;;;;;;;;;1.00;1.00;;;;;9.58;100.00;102744.47;5074821;27;59848;-71
2023/02/02 06:47:21;;;;;;;;;5.33;2.00;;;;;9.56;100.00;102747.03;5062107;28;64734;-70
2023/02/02 06:49:46;;;;;;;;;1.75;1.50;;;;;9.55;100.00;102739.97;5055235;28;62317;-70
2023/02/02 06:52:12;;;;;;;;;3.00;1.00;;;;;9.57;100.00;102747.94;5064005;28;47244;-71
2023/02/02 06:54:37;;;;;;;;;3.50;3.00;;;;;9.56;100.00;102739.13;5069212;28;45643;-71
2023/02/02 06:57:02;;;;;;;;;3.75;2.00;;;;;9.57;100.00;102746.22;5065059;28;61790;-71
2023/02/02 06:59:28;;;;;;;;;3.00;1.50;;;;;9.58;100.00;102750.63;5037249;28;55410;-71
2023/02/02 07:01:53;;;;;;;;;3.75;2.00;;;;;9.58;100.00;102737.44;5074297;28;45588;-71
2023/02/02 07:04:19;;;;;;;;;1.33;1.00;;;;;9.63;100.00;102757.03;5074526;27;57967;-71
2023/02/02 07:06:44;;;;;;;;;3.00;2.00;;;;;9.64;100.00;102745.69;5075666;28;50578;-70
2023/02/02 07:09:10;;;;;;;;;3.00;1.50;;;;;9.65;100.00;102731.66;5075479;28;45442;-71
2023/02/02 07:11:35;;;;;;;;;3.00;1.75;;;;;9.68;100.00;102725.59;5056783;28;58965;-71
2023/02/02 07:14:01;;;;;;;;;2.00;1.00;;;;;9.73;100.00;102734.63;5071241;28;45569;-70
2023/02/02 07:16:26;;;;;;;;;0.67;0.67;;;;;9.74;100.00;102740.78;5069711;28;46413;-71
2023/02/02 07:18:52;;;;;;;;;3.33;1.00;;;;;9.75;100.00;102739.94;5072925;27;45482;-71
2023/02/02 07:21:20;;;;;;;;;2.75;2.50;;;;;9.73;100.00;102744.28;5076145;28;45512;-73
2023/02/02 07:23:45;;;;;;;;;4.00;1.00;;;;;9.70;100.00;102731.84;5072336;28;45550;-71
2023/02/02 07:26:12;;;;;;;;;4.00;2.00;;;;;9.72;100.00;102743.38;5050573;28;46705;-71
2023/02/02 07:28:37;;;;;;;;;4.00;1.00;;;;;9.74;100.00;102744.31;5071166;27;45459;-71
2023/02/02 07:31:21;;;;;;;;;7.67;1.00;;;;;9.74;100.00;102754.88;5056796;28;61810;-72
2023/02/02 07:33:47;;;;;;;;;2.00;1.00;;;;;9.77;100.00;102757.66;5071157;27;45442;-71
2023/02/02 07:36:15;;;;;;;;;3.67;1.00;;;;;9.75;100.00;102756.72;5076125;28;46966;-71
2023/02/02 07:38:41;;;;;;;;;1.67;1.67;;;;;9.76;100.00;102755.88;5076971;28;45495;-69
2023/02/02 07:41:07;;;;;;;;;2.50;2.25;;;;;9.79;100.00;102760.38;5048853;28;45482;-69
2023/02/02 07:43:32;;;;;;;;;3.00;1.00;;;;;9.82;100.00;102760.53;5057265;28;45459;-69
2023/02/02 07:46:01;;;;;;;;;2.00;2.00;;;;;9.83;100.00;102768.50;5058571;28;46650;-69
2023/02/02 07:48:29;;;;;;;;;1.00;1.00;;;;;9.84;100.00;102762.38;5059520;28;45493;-70
2023/02/02 07:51:03;;;;;;;;;7.00;1.75;;;;;9.86;100.00;102765.09;5074501;28;45458;-69
2023/02/02 07:53:29;;;;;;;;;1.50;1.50;;;;;9.87;100.00;102762.53;5057687;28;45602;-70
2023/02/02 07:56:09;;;;;;;;;1.25;1.00;;;;;9.88;100.00;102766.06;5041108;28;46841;-69
2023/02/02 07:58:34;;;;;;;;;1.50;1.50;;;;;9.89;100.00;102763.47;5065453;28;45530;-70
2023/02/02 08:01:01;;;;;;;;;1.00;1.00;;;;;9.91;100.00;102760.94;5056978;28;45533;-69
2023/02/02 08:03:26;;;;;;;;;1.00;1.00;;;;;9.94;100.00;102761.97;5075747;28;45487;-69
2023/02/02 08:05:52;;;;;;;;;2.00;0.00;;;;;9.96;100.00;102764.69;5067221;28;64773;-70
2023/02/02 08:08:17;;;;;;;;;3.00;1.25;;;;;9.96;100.00;102768.22;5067421;28;45911;-70
2023/02/02 08:10:47;;;;;;;;;3.00;1.00;;;;;9.99;100.00;102759.53;5196056;22;62858;-70
2023/02/02 08:13:13;;;;;;;;;5.33;1.00;;;;;10.01;100.00;102759.59;5082616;27;45660;-70
2023/02/02 08:15:38;;;;;;;;;6.00;2.00;;;;;10.02;100.00;102762.31;5085196;27;66042;-72
2023/02/02 08:18:03;;;;;;;;;2.67;1.00;;;;;10.01;100.00;102772.78;5086715;27;63345;-72
2023/02/02 08:20:29;;;;;;;;;3.25;1.75;;;;;10.06;100.00;102769.50;5086743;27;58624;-71
2023/02/02 08:22:55;;;;;;;;;4.25;1.25;;;;;10.06;100.00;102765.97;5074148;27;62403;-69
2023/02/02 08:25:20;;;;;;;;;2.50;1.25;;;;;10.06;100.00;102773.88;5084443;27;46324;-68
2023/02/02 08:27:46;;;;;;;;;2.00;1.00;;;;;10.04;100.00;102786.13;5087909;27;59202;-70
2023/02/02 08:30:12;;;;;;;;;3.67;1.00;;;;;10.03;100.00;102781.69;5089900;27;63233;-68
2023/02/02 08:32:37;;;;;;;;;3.00;1.00;;;;;10.04;100.00;102783.47;5085210;27;46815;-69
2023/02/02 08:35:03;;;;;;;;;6.50;1.00;;;;;10.07;100.00;102802.13;5088065;27;46451;-69
2023/02/02 08:37:28;;;;;;;;;2.00;1.67;;;;;10.07;100.00;102800.38;5073019;27;45519;-70
2023/02/02 08:39:53;;;;;;;;;2.25;1.00;;;;;10.08;100.00;102796.91;5071633;27;45909;-70
2023/02/02 08:42:19;;;;;;;;;3.25;1.00;;;;;10.09;100.00;102795.16;5088264;27;56385;-70
2023/02/02 08:44:44;;;;;;;;;2.33;1.00;;;;;10.11;100.00;102804.94;5090082;27;45926;-70
2023/02/02 08:47:09;;;;;;;;;1.00;1.00;;;;;10.12;100.00;102798.84;5086432;27;45841;-71
2023/02/02 08:49:35;;;;;;;;;2.00;2.00;;;;;10.18;100.00;102803.50;5071818;27;66327;-70
2023/02/02 08:52:00;;;;;;;;;2.33;1.00;;;;;10.18;100.00;102799.09;5090078;27;61035;-69
2023/02/02 08:54:25;;;;;;;;;1.33;1.33;;;;;10.19;100.00;102807.94;5074080;27;68256;-71
2023/02/02 08:56:51;;;;;;;;;4.00;1.00;;;;;10.21;100.00;102815.06;5087310;27;68706;-72
2023/02/02 08:59:16;;;;;;;;;1.00;1.00;;;;;10.22;100.00;102811.59;5086062;27;63510;-71
2023/02/02 09:01:41;;;;;;;;;2.00;1.00;;;;;10.27;100.00;102816.22;5086883;27;45609;-71
2023/02/02 09:04:13;;;;;;;;;2.33;1.00;;;;;10.26;100.00;102811.75;5088900;27;66275;-71
2023/02/02 09:06:39;;;;;;;;;2.33;1.00;;;;;10.29;100.00;102809.28;5091376;27;45565;-72
2023/02/02 09:09:07;;;;;;;;;2.00;0.67;;;;;10.27;100.00;102816.22;5088423;27;45567;-71
2023/02/02 09:11:34;;;;;;;;;4.00;1.33;;;;;10.29;100.00;102818.09;5084394;27;45450;-72
2023/02/02 09:14:02;;;;;;;;;1.00;1.00;;;;;10.31;100.00;102805.84;5057000;27;46963;-71
2023/02/02 09:16:28;;;;;;;;;2.00;1.00;;;;;10.35;100.00;102813.06;5082844;27;45565;-73
2023/02/02 09:18:55;;;;;;;;;1.33;1.33;;;;;10.40;100.00;102815.91;5083645;27;45524;-72
2023/02/02 09:21:20;;;;;;;;;2.00;1.00;;;;;10.42;100.00;102817.78;5071121;27;45585;-72
2023/02/02 09:23:47;;;;;;;;;3.00;1.00;;;;;10.44;100.00;102824.06;5068025;27;70626;-71
2023/02/02 09:26:26;;;;;;;;;1.00;1.00;;;;;10.47;100.00;102839.09;5087332;27;45585;-73
2023/02/02 09:29:03;;;;;;;;;2.33;1.67;;;;;10.43;100.00;102839.81;5084874;27;45463;-72
2023/02/02 09:31:34;;;;;;;;;1.00;1.00;;;;;10.49;100.00;102841.00;5066324;27;45625;-73
2023/02/02 09:34:03;;;;;;;;;3.00;1.00;;;;;10.54;100.00;102850.84;5085674;27;47285;-71
2023/02/02 09:36:29;;;;;;;;;6.67;1.67;;;;;10.57;100.00;102853.63;5073025;27;45485;-70
2023/02/02 09:38:54;;;;;;;;;1.67;1.67;;;;;10.57;100.00;102858.91;5085867;27;45687;-70
2023/02/02 09:41:38;;;;;;;;;2.00;1.00;;;;;10.62;100.00;102854.72;5088677;27;58266;-71
2023/02/02 09:44:09;;;;;;;;;1.00;1.00;;;;;10.62;100.00;102855.63;5091236;27;46408;-71
2023/02/02 09:46:49;;;;;;;;;0.67;0.33;;;;;10.67;100.00;102869.03;5087444;27;45550;-72
2023/02/02 09:49:22;;;;;;;;;4.00;1.00;;;;;10.68;100.00;102862.91;5090354;27;45469;-71
2023/02/02 09:51:55;;;;;;;;;1.33;1.00;;;;;10.67;100.00;102867.28;5095367;27;45354;-70
2023/02/02 09:54:42;;;;;;;;;0.67;0.00;;;;;10.72;100.00;102863.13;5071816;27;46073;-71
2023/02/02 09:57:22;;;;;;;;;2.33;1.00;;;;;10.73;100.00;102872.84;5073694;27;45380;-71
2023/02/02 09:59:50;;;;;;;;;2.33;1.00;;;;;10.80;100.00;102873.09;5091785;27;45589;-71
2023/02/02 10:02:45;;;;;;;;;3.00;1.00;;;;;10.84;100.00;102867.13;5076819;27;45524;-72
2023/02/02 10:05:21;;;;;;;;;2.33;0.00;;;;;10.87;100.00;102868.16;5060413;27;45950;-71
2023/02/02 10:07:50;;;;;;;;;1.67;1.00;;;;;10.91;100.00;102870.06;5075140;27;45899;-70
2023/02/02 10:10:19;;;;;;;;;2.00;0.67;;;;;10.92;100.00;102874.53;5073409;27;45388;-70
2023/02/02 10:13:06;;;;;;;;;1.00;1.00;;;;;10.92;100.00;102871.91;5096550;27;47072;-70
2023/02/02 10:15:47;;;;;;;;;1.00;0.00;;;;;10.92;100.00;102876.25;5075828;27;46537;-72
2023/02/02 10:18:33;;;;;;;;;0.33;0.33;;;;;10.94;100.00;102871.97;5092862;27;45568;-70
2023/02/02 10:21:02;;;;;;;;;2.33;2.00;;;;;10.97;100.00;102878.28;5092741;27;45509;-70
2023/02/02 10:23:44;;;;;;;;;2.00;0.00;;;;;11.04;100.00;102878.53;5074962;27;45419;-72
2023/02/02 10:26:19;;;;;;;;;14.25;9.00;;;;;11.07;100.00;102873.34;5091724;27;45823;-71
2023/02/02 10:29:13;;;;;;;;;3.00;2.33;;;;;11.08;100.00;102881.38;5092833;27;45488;-72
2023/02/02 10:31:48;;;;;;;;;2.33;1.00;;;;;11.10;100.00;102877.03;5056146;27;46173;-72
2023/02/02 10:34:27;;;;;;;;;2.00;2.00;;;;;11.14;100.00;102884.28;5081965;27;45511;-72
2023/02/02 10:37:09;;;;;;;;;2.00;1.00;;;;;11.18;100.00;102882.63;5076692;27;47783;-72
2023/02/02 10:39:34;;;;;;;;;5.00;3.00;;;;;11.21;100.00;102890.72;5089588;27;45418;-72
2023/02/02 10:42:14;;;;;;;;;5.00;4.00;;;;;11.21;100.00;102882.78;5095433;27;45513;-73
2023/02/02 10:45:01;;;;;;;;;7.00;2.00;;;;;11.21;100.00;102882.78;5096249;27;45387;-72
2023/02/02 10:47:32;;;;;;;;;1.00;1.00;;;;;11.23;100.00;102891.66;5094977;27;45627;-72
2023/02/02 10:50:16;;;;;;;;;3.33;3.33;;;;;11.27;100.00;102893.59;5089733;27;45497;-72
2023/02/02 10:52:54;;;;;;;;;2.00;0.00;;;;;11.28;100.00;102893.66;5091432;27;45422;-72
2023/02/02 10:55:19;;;;;;;;;5.00;2.00;;;;;11.36;100.00;102901.91;5087347;27;45569;-73
2023/02/02 10:58:03;;;;;;;;;1.67;1.00;;;;;11.43;100.00;102898.66;5088531;27;45524;-72
2023/02/02 11:00:45;;;;;;;;;2.00;1.00;;;;;11.53;100.00;102899.94;5088259;27;45388;-72
2023/02/02 11:03:12;;;;;;;;;2.00;0.00;;;;;11.61;100.00;102894.94;5091388;27;45555;-72
2023/02/02 11:08:34;;;;;;;;;2.33;2.00;;;;;11.77;100.00;102886.78;5095895;27;45354;-72
2023/02/02 11:11:17;;;;;;;;;2.33;0.67;;;;;11.87;100.00;102893.38;5092575;27;45389;-73
2023/02/02 11:13:56;;;;;;;;;0.33;0.33;;;;;11.93;100.00;102885.66;5093463;27;45455;-72
2023/02/02 11:16:25;;;;;;;;;3.67;0.67;;;;;11.99;100.00;102888.56;5094953;27;45403;-73
2023/02/02 11:18:51;;;;;;;;;1.67;1.00;;;;;12.04;100.00;102887.91;5092152;27;47894;-73
2023/02/02 11:21:30;;;;;;;;;5.00;0.33;;;;;12.04;100.00;102885.25;5091890;27;45396;-72
2023/02/02 11:24:00;;;;;;;;;0.67;0.00;;;;;12.05;100.00;102883.50;5088747;27;45440;-71
2023/02/02 11:26:39;;;;;;;;;3.00;2.00;;;;;12.04;100.00;102879.94;5088930;27;45466;-70
2023/02/02 11:29:04;;;;;;;;;1.33;0.00;;;;;12.04;100.00;102869.38;5070826;27;46037;-71
2023/02/02 11:31:31;;;;;;;;;0.00;0.00;;;;;12.10;100.00;102871.34;5068899;27;66480;-70
2023/02/02 11:34:24;;;;;;;;;1.33;1.00;;;;;12.16;100.00;102868.91;5082948;27;45497;-72
2023/02/02 11:37:00;;;;;;;;;2.00;0.67;;;;;12.20;100.00;102869.94;5070230;27;45560;-71
2023/02/02 11:39:25;;;;;;;;;1.33;0.00;;;;;12.22;100.00;102877.09;5082430;27;46538;-71
2023/02/02 11:41:58;;;;;;;;;0.00;0.00;;;;;12.28;100.00;102849.91;5088034;27;45452;-70
2023/02/02 11:44:25;;;;;;;;;0.00;0.00;;;;;12.32;100.00;102847.44;5079137;27;45544;-70